Time;durP1;ratioP1;P1;durP2;ratioP2;P2;SDS_P1;SDS_P2;PMS_P1;PMS_P2;Temp;Humidity;BMP_temperature;BMP_pressure;BME280_temperature;BME280_humidity;BME280_pressure;Samples;Min_cycle;Max_cycle;Signal;HPM_P1;HPM_P2
2024/02/17 00:00:04;;;;;;;4.38;3.30;;;;;;;;;;5059285;28;20025;-60
2024/02/17 00:02:30;;;;;;;7.47;4.32;;;;;;;;;;5059527;28;20021;-60
2024/02/17 00:04:56;;;;;;;6.80;3.95;;;;;;;;;;5059670;28;20071;-60
2024/02/17 00:07:22;;;;;;;5.18;4.07;;;;;;;;;;5060453;28;20024;-61
2024/02/17 00:09:51;;;;;;;6.25;4.65;;;;;;;;;;5060435;28;20031;-61
2024/02/17 00:12:17;;;;;;;4.07;3.45;;;;;;;;;;5059665;28;20111;-59
2024/02/17 00:14:43;;;;;;;6.75;3.42;;;;;;;;;;5059396;28;20059;-59
2024/02/17 00:17:09;;;;;;;5.30;3.90;;;;;;;;;;5059464;28;20374;-61
2024/02/17 00:19:35;;;;;;;4.80;4.03;;;;;;;;;;5059709;28;20119;-60
2024/02/17 00:22:01;;;;;;;8.93;4.20;;;;;;;;;;5057508;28;20056;-60
2024/02/17 00:24:27;;;;;;;5.57;3.38;;;;;;;;;;5056401;28;20033;-60
2024/02/17 00:26:53;;;;;;;5.82;3.83;;;;;;;;;;5056497;28;20025;-60
2024/02/17 00:29:20;;;;;;;3.60;3.17;;;;;;;;;;5056566;28;20060;-59
2024/02/17 00:31:49;;;;;;;4.32;3.28;;;;;;;;;;5056141;28;20044;-59
2024/02/17 00:34:18;;;;;;;3.65;2.90;;;;;;;;;;5056180;28;20067;-60
2024/02/17 00:36:44;;;;;;;3.90;3.08;;;;;;;;;;5056153;28;20085;-60
2024/02/17 00:39:10;;;;;;;4.22;3.75;;;;;;;;;;5055974;28;20024;-60
2024/02/17 00:41:39;;;;;;;4.60;3.60;;;;;;;;;;5056539;28;20032;-60
2024/02/17 00:44:05;;;;;;;6.25;4.60;;;;;;;;;;5056760;28;20051;-59
2024/02/17 00:46:31;;;;;;;5.00;3.83;;;;;;;;;;5055878;28;20089;-60
2024/02/17 00:48:57;;;;;;;4.93;3.88;;;;;;;;;;5056669;28;20035;-60
2024/02/17 00:51:23;;;;;;;5.55;3.63;;;;;;;;;;5055816;28;20104;-60
2024/02/17 00:53:49;;;;;;;5.57;3.35;;;;;;;;;;5056410;28;20033;-58
2024/02/17 00:56:15;;;;;;;4.68;4.15;;;;;;;;;;5055174;28;20136;-58
2024/02/17 00:58:41;;;;;;;5.20;3.63;;;;;;;;;;5055757;28;20452;-58
2024/02/17 01:01:10;;;;;;;4.18;3.72;;;;;;;;;;5056200;28;20048;-58
2024/02/17 01:03:36;;;;;;;7.72;4.60;;;;;;;;;;5056121;28;20043;-58
2024/02/17 01:06:03;;;;;;;6.80;5.00;;;;;;;;;;5055640;28;20021;-58
2024/02/17 01:08:29;;;;;;;6.00;4.65;;;;;;;;;;5056444;28;20108;-58
2024/02/17 01:10:55;;;;;;;7.03;5.38;;;;;;;;;;5055291;28;20454;-58
2024/02/17 01:13:20;;;;;;;5.18;4.13;;;;;;;;;;5055843;28;20356;-58
2024/02/17 01:15:46;;;;;;;8.13;5.03;;;;;;;;;;5055424;28;20086;-58
2024/02/17 01:18:12;;;;;;;6.50;4.38;;;;;;;;;;5055498;28;20025;-58
2024/02/17 01:20:38;;;;;;;7.25;4.88;;;;;;;;;;5055390;28;20028;-58
2024/02/17 01:23:04;;;;;;;6.03;4.55;;;;;;;;;;5055070;28;20021;-58
2024/02/17 01:25:30;;;;;;;8.68;4.32;;;;;;;;;;5055854;28;20036;-58
2024/02/17 01:27:56;;;;;;;6.35;4.57;;;;;;;;;;5055509;28;20083;-58
2024/02/17 01:30:22;;;;;;;8.30;4.60;;;;;;;;;;5055171;28;20021;-58
2024/02/17 01:32:48;;;;;;;5.85;4.40;;;;;;;;;;5055185;28;20032;-58
2024/02/17 01:35:14;;;;;;;4.30;3.72;;;;;;;;;;5055735;28;20028;-58
2024/02/17 01:37:40;;;;;;;8.77;3.95;;;;;;;;;;5055014;28;20025;-58
2024/02/17 01:40:08;;;;;;;5.10;4.10;;;;;;;;;;5055024;28;20446;-58
2024/02/17 01:42:34;;;;;;;4.95;3.53;;;;;;;;;;5055555;28;20021;-58
2024/02/17 01:45:01;;;;;;;4.97;4.03;;;;;;;;;;5054859;28;20526;-58
2024/02/17 01:47:27;;;;;;;5.45;3.83;;;;;;;;;;5054868;28;20116;-58
2024/02/17 01:49:55;;;;;;;4.43;4.03;;;;;;;;;;5055076;28;20515;-58
2024/02/17 01:52:21;;;;;;;5.70;3.85;;;;;;;;;;5055291;28;20029;-58
2024/02/17 01:54:47;;;;;;;5.53;3.60;;;;;;;;;;5054696;28;20037;-58
2024/02/17 01:57:14;;;;;;;4.53;3.83;;;;;;;;;;5054561;28;20053;-58
2024/02/17 01:59:40;;;;;;;5.10;3.97;;;;;;;;;;5054269;28;20479;-58
2024/02/17 02:02:06;;;;;;;4.53;3.63;;;;;;;;;;5054584;28;20375;-58
2024/02/17 02:04:32;;;;;;;7.03;4.45;;;;;;;;;;5054559;28;20025;-58
2024/02/17 02:06:58;;;;;;;5.55;3.72;;;;;;;;;;5055014;28;20025;-58
2024/02/17 02:09:25;;;;;;;5.32;3.70;;;;;;;;;;5055082;28;20470;-58
2024/02/17 02:11:51;;;;;;;7.15;3.75;;;;;;;;;;5054400;28;20021;-58
2024/02/17 02:14:18;;;;;;;5.35;3.63;;;;;;;;;;5054606;28;20344;-58
2024/02/17 02:16:44;;;;;;;6.43;4.05;;;;;;;;;;5054196;28;20036;-58
2024/02/17 02:19:11;;;;;;;4.15;3.50;;;;;;;;;;5054802;28;20021;-58
2024/02/17 02:21:41;;;;;;;5.82;3.22;;;;;;;;;;5054354;28;20025;-60
2024/02/17 02:24:07;;;;;;;4.35;3.67;;;;;;;;;;5054210;28;20029;-60
2024/02/17 02:26:33;;;;;;;4.30;3.90;;;;;;;;;;5054172;28;20032;-60
2024/02/17 02:28:59;;;;;;;5.57;3.72;;;;;;;;;;5055030;28;20032;-58
2024/02/17 02:31:26;;;;;;;3.25;2.88;;;;;;;;;;5054135;28;20031;-58
2024/02/17 02:33:52;;;;;;;4.10;2.90;;;;;;;;;;5054591;28;20021;-58
2024/02/17 02:36:20;;;;;;;4.07;2.80;;;;;;;;;;5053860;28;20461;-58
2024/02/17 02:38:46;;;;;;;3.35;2.10;;;;;;;;;;5054554;28;20521;-58
2024/02/17 02:41:12;;;;;;;2.55;1.65;;;;;;;;;;5053614;28;20460;-58
2024/02/17 02:43:38;;;;;;;2.97;2.28;;;;;;;;;;5053907;28;20109;-58
2024/02/17 02:46:04;;;;;;;4.60;2.95;;;;;;;;;;5053379;28;20349;-58
2024/02/17 02:48:30;;;;;;;6.05;3.85;;;;;;;;;;5054453;28;20025;-58
2024/02/17 02:50:56;;;;;;;5.25;3.58;;;;;;;;;;5054633;28;20048;-58
2024/02/17 02:53:22;;;;;;;4.93;4.25;;;;;;;;;;5053797;28;20168;-60
2024/02/17 02:55:48;;;;;;;6.80;4.75;;;;;;;;;;5053498;28;20098;-58
2024/02/17 02:58:14;;;;;;;6.82;5.25;;;;;;;;;;5054350;28;20037;-58
2024/02/17 03:00:40;;;;;;;5.95;4.82;;;;;;;;;;5054156;28;20051;-58
2024/02/17 03:03:06;;;;;;;6.63;5.72;;;;;;;;;;5053682;28;20029;-58
2024/02/17 03:05:32;;;;;;;5.95;5.35;;;;;;;;;;5053618;28;20521;-58
2024/02/17 03:07:57;;;;;;;6.82;5.78;;;;;;;;;;5054511;28;20039;-58
2024/02/17 03:10:23;;;;;;;7.53;6.60;;;;;;;;;;5054096;28;20429;-58
2024/02/17 03:12:49;;;;;;;8.80;7.05;;;;;;;;;;5054089;28;20446;-58
2024/02/17 03:15:16;;;;;;;8.18;7.22;;;;;;;;;;5053540;28;20409;-58
2024/02/17 03:17:42;;;;;;;10.02;7.40;;;;;;;;;;5053370;28;20035;-58
2024/02/17 03:20:08;;;;;;;8.43;6.85;;;;;;;;;;5054342;28;20029;-58
2024/02/17 03:22:34;;;;;;;8.82;6.13;;;;;;;;;;5053521;28;20021;-58
2024/02/17 03:25:00;;;;;;;9.68;8.20;;;;;;;;;;5053915;28;20036;-57
2024/02/17 03:27:27;;;;;;;11.05;7.95;;;;;;;;;;5053348;28;20037;-58
2024/02/17 03:29:53;;;;;;;10.52;9.35;;;;;;;;;;5053696;28;20534;-58
2024/02/17 03:32:19;;;;;;;11.25;9.18;;;;;;;;;;5053363;28;20160;-58
2024/02/17 03:34:45;;;;;;;10.23;9.20;;;;;;;;;;5053416;28;20025;-58
2024/02/17 03:37:11;;;;;;;11.13;8.68;;;;;;;;;;5053805;28;20029;-58
2024/02/17 03:39:38;;;;;;;10.82;9.38;;;;;;;;;;5053908;28;20033;-58
2024/02/17 03:42:04;;;;;;;13.02;11.48;;;;;;;;;;5053332;28;20036;-58
2024/02/17 03:44:30;;;;;;;10.95;9.45;;;;;;;;;;5053205;28;20053;-58
2024/02/17 03:46:56;;;;;;;13.02;10.20;;;;;;;;;;5053268;28;20108;-58
2024/02/17 03:49:24;;;;;;;10.40;9.02;;;;;;;;;;5054070;28;20036;-58
2024/02/17 03:51:50;;;;;;;12.60;9.40;;;;;;;;;;5053208;28;20025;-58
2024/02/17 03:54:17;;;;;;;11.60;10.18;;;;;;;;;;5053123;28;20029;-58
2024/02/17 03:56:43;;;;;;;10.90;9.50;;;;;;;;;;5052518;28;20084;-58
2024/02/17 03:59:09;;;;;;;11.40;10.05;;;;;;;;;;5056559;28;20447;-58
2024/02/17 04:01:35;;;;;;;10.70;9.50;;;;;;;;;;5056648;28;20104;-58
2024/02/17 04:04:04;;;;;;;12.50;10.27;;;;;;;;;;5057503;28;20029;-58
2024/02/17 04:06:31;;;;;;;11.48;10.27;;;;;;;;;;5056806;28;20120;-58
2024/02/17 04:08:57;;;;;;;11.80;9.23;;;;;;;;;;5057487;28;20036;-58
2024/02/17 04:11:23;;;;;;;11.60;9.75;;;;;;;;;;5057250;28;20340;-57
2024/02/17 04:13:49;;;;;;;12.25;10.70;;;;;;;;;;5056670;28;20036;-58
2024/02/17 04:16:15;;;;;;;11.45;10.27;;;;;;;;;;5057070;28;20345;-57
2024/02/17 04:18:41;;;;;;;12.15;9.23;;;;;;;;;;5057507;28;20025;-58
2024/02/17 04:21:07;;;;;;;11.68;9.45;;;;;;;;;;5056567;28;20035;-57
2024/02/17 04:23:33;;;;;;;12.57;9.73;;;;;;;;;;5057108;28;20079;-58
2024/02/17 04:26:02;;;;;;;10.95;8.63;;;;;;;;;;5056425;28;20083;-58
2024/02/17 04:28:28;;;;;;;9.55;7.95;;;;;;;;;;5056460;28;20372;-58
2024/02/17 04:30:55;;;;;;;10.32;7.63;;;;;;;;;;5056671;28;20032;-58
2024/02/17 04:33:21;;;;;;;8.68;7.78;;;;;;;;;;5056304;28;20455;-58
2024/02/17 04:35:47;;;;;;;9.70;8.60;;;;;;;;;;5056549;28;20055;-58
2024/02/17 04:38:13;;;;;;;10.35;7.75;;;;;;;;;;5056496;28;20044;-58
2024/02/17 04:40:39;;;;;;;10.40;8.05;;;;;;;;;;5056160;28;20033;-58
2024/02/17 04:43:05;;;;;;;8.93;7.45;;;;;;;;;;5056640;28;20029;-58
2024/02/17 04:45:31;;;;;;;8.88;7.97;;;;;;;;;;5056026;28;20021;-58
2024/02/17 04:47:57;;;;;;;8.48;6.55;;;;;;;;;;5056358;28;20025;-58
2024/02/17 04:50:23;;;;;;;8.25;6.35;;;;;;;;;;5056586;28;20036;-58
2024/02/17 04:52:49;;;;;;;5.32;4.82;;;;;;;;;;5056021;28;20024;-58
2024/02/17 04:55:15;;;;;;;5.75;5.13;;;;;;;;;;5056506;28;20032;-58
2024/02/17 04:57:41;;;;;;;7.32;5.60;;;;;;;;;;5056227;28;20449;-58
2024/02/17 05:00:08;;;;;;;8.27;6.45;;;;;;;;;;5055798;28;20147;-58
2024/02/17 05:02:36;;;;;;;9.13;8.15;;;;;;;;;;5055765;28;20021;-58
2024/02/17 05:05:02;;;;;;;11.15;8.68;;;;;;;;;;5056234;28;20029;-58
2024/02/17 05:07:28;;;;;;;10.05;8.88;;;;;;;;;;5055467;28;20033;-58
2024/02/17 05:09:54;;;;;;;13.95;10.48;;;;;;;;;;5055471;28;20084;-58
2024/02/17 05:12:20;;;;;;;13.23;10.30;;;;;;;;;;5055576;28;20052;-58
2024/02/17 05:14:45;;;;;;;12.90;11.48;;;;;;;;;;5056442;28;20036;-58
2024/02/17 05:17:12;;;;;;;13.20;11.88;;;;;;;;;;5055674;28;20030;-58
2024/02/17 05:19:38;;;;;;;13.55;11.20;;;;;;;;;;5055515;28;20025;-58
2024/02/17 05:22:04;;;;;;;17.17;12.85;;;;;;;;;;5055823;28;20048;-58
2024/02/17 05:24:31;;;;;;;14.68;12.82;;;;;;;;;;5055624;28;20021;-58
2024/02/17 05:26:57;;;;;;;17.45;13.98;;;;;;;;;;5055238;28;20090;-58
2024/02/17 05:29:23;;;;;;;15.40;11.90;;;;;;;;;;5055252;28;20021;-58
2024/02/17 05:31:49;;;;;;;15.93;12.43;;;;;;;;;;5055246;28;20116;-58
2024/02/17 05:34:17;;;;;;;14.73;12.93;;;;;;;;;;5055270;28;20104;-58
2024/02/17 05:36:43;;;;;;;16.02;13.63;;;;;;;;;;5055858;28;20059;-58
2024/02/17 05:39:10;;;;;;;16.13;13.43;;;;;;;;;;5055730;28;20025;-58
2024/02/17 05:41:36;;;;;;;17.90;13.85;;;;;;;;;;5055559;28;20111;-58
2024/02/17 05:44:02;;;;;;;16.05;13.15;;;;;;;;;;5055508;28;20106;-58
2024/02/17 05:46:28;;;;;;;17.67;13.65;;;;;;;;;;5054823;28;20029;-57
2024/02/17 05:48:54;;;;;;;15.52;12.88;;;;;;;;;;5055556;28;20155;-57
2024/02/17 05:51:20;;;;;;;16.75;13.40;;;;;;;;;;5054800;28;20053;-58
2024/02/17 05:53:45;;;;;;;15.95;12.43;;;;;;;;;;5054726;28;20025;-58
2024/02/17 05:56:12;;;;;;;16.30;13.85;;;;;;;;;;5055110;28;20045;-58
2024/02/17 05:58:38;;;;;;;15.38;13.73;;;;;;;;;;5054754;28;20055;-58
2024/02/17 06:01:04;;;;;;;18.80;14.40;;;;;;;;;;5055235;28;20025;-58
2024/02/17 06:03:32;;;;;;;16.83;13.15;;;;;;;;;;5054756;28;20060;-58
2024/02/17 06:05:58;;;;;;;22.02;15.20;;;;;;;;;;5054570;28;20029;-58
2024/02/17 06:08:24;;;;;;;19.02;14.75;;;;;;;;;;5054686;28;20029;-58
2024/02/17 06:10:50;;;;;;;17.25;13.45;;;;;;;;;;5054359;28;20526;-58
2024/02/17 06:13:16;;;;;;;21.85;12.82;;;;;;;;;;5054470;28;20112;-58
2024/02/17 06:15:43;;;;;;;19.60;15.32;;;;;;;;;;5055259;28;20021;-58
2024/02/17 06:21:13;;;;;;;17.00;13.43;;;;;;;;;;5053437;28;20124;-58
2024/02/17 06:23:43;;;;;;;17.77;15.27;;;;;;;;;;5055365;28;20037;-58
2024/02/17 06:26:25;;;;;;;18.77;15.00;;;;;;;;;;5054223;28;20021;-58
2024/02/17 06:28:51;;;;;;;19.08;15.27;;;;;;;;;;5053846;28;20029;-58
2024/02/17 06:31:17;;;;;;;21.17;16.05;;;;;;;;;;5054275;28;20029;-59
2024/02/17 06:33:43;;;;;;;18.92;14.88;;;;;;;;;;5055041;28;20029;-60
2024/02/17 06:36:10;;;;;;;22.13;16.88;;;;;;;;;;5054040;28;20425;-60
2024/02/17 06:38:36;;;;;;;17.88;14.73;;;;;;;;;;5054698;28;20086;-60
2024/02/17 06:41:02;;;;;;;20.70;15.07;;;;;;;;;;5054051;28;20029;-60
2024/02/17 06:43:28;;;;;;;19.70;15.75;;;;;;;;;;5054072;28;20025;-60
2024/02/17 06:45:54;;;;;;;19.75;13.85;;;;;;;;;;5054065;28;20025;-60
2024/02/17 06:48:20;;;;;;;18.67;14.80;;;;;;;;;;5054549;28;20483;-60
2024/02/17 06:50:46;;;;;;;19.20;15.95;;;;;;;;;;5053906;28;20021;-58
2024/02/17 06:53:12;;;;;;;18.42;14.35;;;;;;;;;;5053592;28;20025;-58
2024/02/17 06:55:38;;;;;;;20.75;14.85;;;;;;;;;;5053671;28;20387;-58
2024/02/17 06:58:04;;;;;;;19.05;14.77;;;;;;;;;;5054015;28;20024;-58
2024/02/17 07:00:30;;;;;;;17.27;15.50;;;;;;;;;;5053773;28;20048;-58
2024/02/17 07:02:56;;;;;;;15.85;13.60;;;;;;;;;;5054227;28;20374;-57
2024/02/17 07:05:22;;;;;;;15.63;13.27;;;;;;;;;;5053734;28;20025;-58
2024/02/17 07:07:48;;;;;;;15.98;13.27;;;;;;;;;;5054319;28;20061;-58
2024/02/17 07:10:14;;;;;;;17.45;13.65;;;;;;;;;;5053692;28;20451;-58
2024/02/17 07:12:40;;;;;;;19.52;14.35;;;;;;;;;;5054442;28;20029;-58
2024/02/17 07:15:06;;;;;;;18.83;14.48;;;;;;;;;;5053898;28;20382;-58
2024/02/17 07:17:32;;;;;;;22.42;14.20;;;;;;;;;;5053188;28;20029;-58
2024/02/17 07:19:58;;;;;;;16.10;11.85;;;;;;;;;;5053930;28;20036;-60
2024/02/17 07:22:24;;;;;;;22.08;14.68;;;;;;;;;;5053456;28;20035;-60
2024/02/17 07:24:51;;;;;;;22.90;15.48;;;;;;;;;;5053605;28;20060;-60
2024/02/17 07:27:17;;;;;;;17.23;13.60;;;;;;;;;;5053409;28;20535;-60
2024/02/17 07:29:43;;;;;;;17.30;14.40;;;;;;;;;;5053649;28;20025;-58
2024/02/17 07:32:09;;;;;;;22.00;15.23;;;;;;;;;;5055622;28;20081;-60
2024/02/17 07:34:36;;;;;;;20.75;13.70;;;;;;;;;;5057477;28;20037;-60
2024/02/17 07:37:07;;;;;;;20.00;14.95;;;;;;;;;;5057847;28;20038;-59
2024/02/17 07:39:35;;;;;;;16.35;13.93;;;;;;;;;;5057339;28;20057;-58
2024/02/17 07:42:01;;;;;;;16.40;13.85;;;;;;;;;;5057274;28;20037;-58
2024/02/17 07:44:27;;;;;;;18.67;13.85;;;;;;;;;;5057173;28;20029;-58
2024/02/17 07:49:55;;;;;;;20.38;15.30;;;;;;;;;;5056090;28;20036;-59
2024/02/17 07:52:24;;;;;;;20.23;15.52;;;;;;;;;;5057346;28;20448;-59
2024/02/17 07:54:50;;;;;;;18.63;14.57;;;;;;;;;;5056669;28;20036;-59
2024/02/17 07:57:16;;;;;;;18.88;14.90;;;;;;;;;;5057015;28;20045;-59
2024/02/17 07:59:42;;;;;;;21.05;14.57;;;;;;;;;;5057394;28;20413;-59
2024/02/17 08:02:08;;;;;;;22.15;13.63;;;;;;;;;;5056572;28;20025;-59
2024/02/17 08:04:34;;;;;;;19.02;14.48;;;;;;;;;;5057393;28;20086;-60
2024/02/17 08:07:00;;;;;;;21.17;15.10;;;;;;;;;;5057021;28;20036;-59
2024/02/17 08:09:26;;;;;;;15.63;12.93;;;;;;;;;;5057418;28;20036;-59
2024/02/17 08:11:54;;;;;;;16.45;13.50;;;;;;;;;;5056340;28;20029;-58
2024/02/17 08:14:20;;;;;;;14.75;13.23;;;;;;;;;;5056688;28;20433;-59
2024/02/17 08:16:46;;;;;;;16.90;13.57;;;;;;;;;;5056733;28;20037;-59
2024/02/17 08:19:12;;;;;;;17.00;13.82;;;;;;;;;;5057213;28;20036;-60
2024/02/17 08:21:38;;;;;;;18.25;13.88;;;;;;;;;;5056334;28;20025;-60
2024/02/17 08:24:04;;;;;;;18.25;13.63;;;;;;;;;;5056210;28;20032;-59
2024/02/17 08:26:31;;;;;;;16.65;13.52;;;;;;;;;;5056499;28;20033;-61
2024/02/17 08:28:57;;;;;;;20.75;14.23;;;;;;;;;;5057368;28;20108;-59
2024/02/17 08:31:23;;;;;;;17.55;13.75;;;;;;;;;;5057016;28;20443;-59
2024/02/17 08:33:49;;;;;;;15.32;12.68;;;;;;;;;;5056384;28;20025;-59
2024/02/17 08:36:16;;;;;;;14.57;12.02;;;;;;;;;;5056318;28;20039;-59
2024/02/17 08:38:42;;;;;;;13.95;10.98;;;;;;;;;;5056344;28;20029;-59
2024/02/17 08:41:08;;;;;;;15.95;11.43;;;;;;;;;;5056684;28;20074;-59
2024/02/17 08:43:34;;;;;;;12.32;11.00;;;;;;;;;;5055308;28;20025;-59
2024/02/17 08:45:59;;;;;;;13.88;10.90;;;;;;;;;;5056395;28;20029;-59
2024/02/17 08:48:25;;;;;;;12.48;10.82;;;;;;;;;;5056847;28;20032;-59
2024/02/17 08:50:51;;;;;;;16.65;12.20;;;;;;;;;;5055834;28;20036;-59
2024/02/17 08:53:18;;;;;;;14.10;11.93;;;;;;;;;;5056484;28;20072;-59
2024/02/17 08:55:45;;;;;;;15.68;13.05;;;;;;;;;;5055446;28;20052;-59
2024/02/17 08:58:10;;;;;;;16.50;12.45;;;;;;;;;;5055638;28;20033;-59
2024/02/17 09:00:37;;;;;;;14.05;11.40;;;;;;;;;;5056193;28;20025;-59
2024/02/17 09:03:03;;;;;;;13.93;11.13;;;;;;;;;;5056316;28;20025;-59
2024/02/17 09:05:29;;;;;;;15.20;12.15;;;;;;;;;;5055620;28;20029;-59
2024/02/17 09:07:55;;;;;;;15.48;12.48;;;;;;;;;;5055565;28;20025;-59
2024/02/17 09:10:21;;;;;;;11.98;10.65;;;;;;;;;;5055612;28;20036;-59
2024/02/17 09:12:47;;;;;;;11.30;10.07;;;;;;;;;;5055487;28;20052;-59
2024/02/17 09:15:13;;;;;;;14.07;10.05;;;;;;;;;;5055978;28;20451;-59
2024/02/17 09:17:39;;;;;;;12.50;11.23;;;;;;;;;;5055659;28;20163;-59
2024/02/17 09:20:05;;;;;;;11.25;10.15;;;;;;;;;;5055244;28;20021;-59
2024/02/17 09:22:31;;;;;;;10.70;9.35;;;;;;;;;;5055318;28;20029;-58
2024/02/17 09:24:57;;;;;;;11.98;10.77;;;;;;;;;;5055843;28;20024;-59
2024/02/17 09:27:23;;;;;;;12.18;9.93;;;;;;;;;;5055437;28;20116;-59
2024/02/17 09:29:50;;;;;;;10.52;9.25;;;;;;;;;;5055247;28;20071;-59
2024/02/17 09:32:16;;;;;;;10.05;8.43;;;;;;;;;;5055207;28;20028;-59
2024/02/17 09:34:42;;;;;;;12.15;10.75;;;;;;;;;;5055238;28;20027;-60
2024/02/17 09:37:09;;;;;;;10.23;9.30;;;;;;;;;;5054831;28;20065;-59
2024/02/17 09:39:35;;;;;;;9.93;8.85;;;;;;;;;;5055401;28;20032;-60
2024/02/17 09:42:01;;;;;;;11.70;9.70;;;;;;;;;;5054783;28;20035;-60
2024/02/17 09:44:27;;;;;;;10.65;9.45;;;;;;;;;;5055521;28;20090;-58
2024/02/17 09:46:53;;;;;;;10.50;8.30;;;;;;;;;;5054897;28;20075;-58
2024/02/17 09:49:24;;;;;;;10.75;9.38;;;;;;;;;;5055753;28;20035;-60
2024/02/17 09:51:50;;;;;;;12.88;9.15;;;;;;;;;;5055250;28;20024;-60
2024/02/17 09:54:18;;;;;;;10.95;7.60;;;;;;;;;;5055297;28;20025;-61
2024/02/17 09:56:44;;;;;;;10.85;9.20;;;;;;;;;;5054725;28;20490;-60
2024/02/17 09:59:10;;;;;;;10.65;8.38;;;;;;;;;;5054666;28;20025;-58
2024/02/17 10:01:36;;;;;;;12.27;8.98;;;;;;;;;;5054573;28;20499;-60
2024/02/17 10:04:02;;;;;;;11.30;7.55;;;;;;;;;;5054280;28;20057;-60
2024/02/17 10:06:28;;;;;;;11.45;8.25;;;;;;;;;;5054336;28;20498;-60
2024/02/17 10:08:56;;;;;;;12.10;8.05;;;;;;;;;;5054973;28;20021;-60
2024/02/17 10:11:23;;;;;;;9.10;7.47;;;;;;;;;;5054542;28;20039;-60
2024/02/17 10:14:00;;;;;;;9.85;8.75;;;;;;;;;;5054488;28;20462;-59
2024/02/17 10:16:28;;;;;;;10.35;7.85;;;;;;;;;;5054891;28;20033;-59
2024/02/17 10:18:53;;;;;;;9.43;8.43;;;;;;;;;;5054389;28;20025;-59
2024/02/17 10:21:23;;;;;;;9.75;7.68;;;;;;;;;;5054723;28;20337;-60
2024/02/17 10:23:49;;;;;;;10.95;8.23;;;;;;;;;;5054216;28;20025;-57
2024/02/17 10:26:15;;;;;;;10.25;7.90;;;;;;;;;;5054310;28;20434;-57
2024/02/17 10:28:41;;;;;;;8.30;7.32;;;;;;;;;;5054767;28;20063;-59
2024/02/17 10:31:08;;;;;;;9.38;7.70;;;;;;;;;;5054638;28;20021;-59
2024/02/17 10:33:35;;;;;;;13.55;9.07;;;;;;;;;;5054169;28;20029;-58
2024/02/17 10:36:01;;;;;;;10.27;8.18;;;;;;;;;;5053677;28;20036;-59
2024/02/17 10:38:27;;;;;;;11.60;8.27;;;;;;;;;;5054480;28;20040;-59
2024/02/17 10:40:53;;;;;;;11.52;7.80;;;;;;;;;;5053991;28;20067;-60
2024/02/17 10:43:19;;;;;;;13.25;7.50;;;;;;;;;;5054482;28;20025;-60
2024/02/17 10:45:47;;;;;;;9.57;7.43;;;;;;;;;;5054472;28;20534;-58
2024/02/17 10:48:15;;;;;;;9.88;7.38;;;;;;;;;;5054243;28;20036;-59
2024/02/17 10:50:44;;;;;;;10.07;7.05;;;;;;;;;;5053823;28;20035;-59
2024/02/17 10:53:22;;;;;;;7.45;6.25;;;;;;;;;;5053818;28;20474;-59
2024/02/17 10:55:53;;;;;;;8.70;7.05;;;;;;;;;;5053679;28;20048;-59
2024/02/17 10:58:21;;;;;;;7.35;6.20;;;;;;;;;;5054087;28;20505;-59
2024/02/17 11:00:48;;;;;;;6.68;5.63;;;;;;;;;;5053646;28;20037;-59
2024/02/17 11:03:15;;;;;;;10.05;6.05;;;;;;;;;;5053620;28;20017;-60
2024/02/17 11:05:43;;;;;;;7.32;6.22;;;;;;;;;;5053082;28;20025;-59
2024/02/17 11:08:09;;;;;;;6.60;5.90;;;;;;;;;;5053337;28;20025;-59
2024/02/17 11:10:36;;;;;;;11.15;6.35;;;;;;;;;;5053213;28;20471;-59
2024/02/17 11:13:02;;;;;;;6.40;5.68;;;;;;;;;;5053576;28;20074;-59
2024/02/17 11:15:28;;;;;;;7.80;5.95;;;;;;;;;;5053586;28;20029;-59
2024/02/17 11:17:58;;;;;;;6.72;5.88;;;;;;;;;;5053562;28;20037;-59
2024/02/17 11:20:28;;;;;;;6.72;5.05;;;;;;;;;;5053857;28;20029;-59
2024/02/17 11:23:01;;;;;;;5.18;4.32;;;;;;;;;;5053847;28;20025;-59
2024/02/17 11:25:47;;;;;;;4.97;4.25;;;;;;;;;;5053961;28;20024;-59
2024/02/17 11:28:20;;;;;;;4.95;3.95;;;;;;;;;;5054182;28;20036;-59
2024/02/17 11:30:50;;;;;;;4.10;3.20;;;;;;;;;;5053390;28;20484;-59
2024/02/17 11:33:16;;;;;;;5.22;3.53;;;;;;;;;;5053304;28;20135;-58
2024/02/17 11:35:48;;;;;;;7.18;3.58;;;;;;;;;;5053247;28;20025;-57
2024/02/17 11:38:21;;;;;;;5.63;3.67;;;;;;;;;;5053435;28;20116;-57
2024/02/17 11:40:47;;;;;;;5.63;4.50;;;;;;;;;;5053998;28;20051;-58
2024/02/17 11:43:14;;;;;;;5.65;3.65;;;;;;;;;;5053820;28;20399;-57
2024/02/17 11:45:40;;;;;;;5.85;5.07;;;;;;;;;;5053040;28;20064;-56
2024/02/17 11:48:07;;;;;;;9.27;6.05;;;;;;;;;;5052732;28;20029;-56
2024/02/17 11:50:33;;;;;;;9.27;7.00;;;;;;;;;;5053242;28;20427;-57
2024/02/17 11:52:59;;;;;;;8.68;6.93;;;;;;;;;;5053371;28;20068;-57
2024/02/17 11:55:26;;;;;;;7.38;6.45;;;;;;;;;;5052978;28;20068;-58
2024/02/17 11:57:55;;;;;;;8.48;5.95;;;;;;;;;;5052989;28;20482;-58
2024/02/17 12:00:21;;;;;;;9.50;6.10;;;;;;;;;;5052688;28;20116;-56
2024/02/17 12:02:47;;;;;;;7.40;6.25;;;;;;;;;;5052747;28;20061;-59
2024/02/17 12:05:15;;;;;;;7.15;6.38;;;;;;;;;;5052900;28;20392;-58
2024/02/17 12:07:41;;;;;;;6.30;5.63;;;;;;;;;;5052627;28;20039;-58
2024/02/17 12:10:12;;;;;;;5.55;4.95;;;;;;;;;;5053133;28;20029;-59
2024/02/17 12:12:39;;;;;;;9.35;4.97;;;;;;;;;;5053306;28;20436;-56
2024/02/17 12:15:09;;;;;;;5.22;3.88;;;;;;;;;;5053048;28;20444;-58
2024/02/17 12:17:42;;;;;;;4.43;4.00;;;;;;;;;;5052741;28;20359;-58
2024/02/17 12:20:11;;;;;;;5.13;3.90;;;;;;;;;;5056577;28;20051;-58
2024/02/17 12:22:37;;;;;;;6.55;4.25;;;;;;;;;;5057116;28;20033;-57
2024/02/17 12:25:03;;;;;;;5.10;3.38;;;;;;;;;;5056464;28;20159;-57
2024/02/17 12:27:30;;;;;;;4.93;3.53;;;;;;;;;;5056755;28;20083;-59
2024/02/17 12:30:01;;;;;;;5.38;3.90;;;;;;;;;;5056540;28;20029;-58
2024/02/17 12:32:27;;;;;;;6.10;4.05;;;;;;;;;;5056891;28;20091;-59
2024/02/17 12:34:53;;;;;;;10.82;2.90;;;;;;;;;;5056660;28;20033;-58
2024/02/17 12:37:19;;;;;;;4.35;2.47;;;;;;;;;;5056298;28;20059;-59
2024/02/17 12:39:46;;;;;;;4.20;2.53;;;;;;;;;;5056696;28;20063;-57
2024/02/17 12:42:13;;;;;;;3.05;2.45;;;;;;;;;;5056166;28;20025;-57
2024/02/17 12:44:40;;;;;;;4.35;2.83;;;;;;;;;;5056405;28;20037;-58
2024/02/17 12:47:16;;;;;;;3.80;2.47;;;;;;;;;;5056065;28;20496;-56
2024/02/17 12:49:42;;;;;;;5.93;2.20;;;;;;;;;;5055833;28;20486;-56
2024/02/17 12:52:08;;;;;;;3.70;2.63;;;;;;;;;;5056581;28;20297;-57
2024/02/17 12:54:34;;;;;;;6.22;2.15;;;;;;;;;;5056451;28;20119;-56
2024/02/17 12:57:00;;;;;;;3.42;1.92;;;;;;;;;;5056155;28;20084;-57
2024/02/17 12:59:26;;;;;;;2.33;1.70;;;;;;;;;;5055708;28;20029;-57
2024/02/17 13:02:02;;;;;;;2.75;1.65;;;;;;;;;;5055836;28;20025;-59
2024/02/17 13:04:28;;;;;;;3.05;1.80;;;;;;;;;;5055869;28;20082;-56
2024/02/17 13:06:54;;;;;;;2.75;1.30;;;;;;;;;;5055806;28;20471;-57
2024/02/17 13:09:20;;;;;;;2.15;1.05;;;;;;;;;;5056051;28;20036;-57
2024/02/17 13:11:46;;;;;;;1.92;1.13;;;;;;;;;;5055635;28;20037;-57
2024/02/17 13:14:12;;;;;;;1.38;0.68;;;;;;;;;;5056157;28;20028;-57
2024/02/17 13:16:38;;;;;;;1.75;0.90;;;;;;;;;;5055769;28;20036;-57
2024/02/17 13:19:05;;;;;;;1.95;1.25;;;;;;;;;;5056078;28;20021;-57
2024/02/17 13:21:30;;;;;;;1.95;1.02;;;;;;;;;;5055326;28;20021;-57
2024/02/17 13:23:56;;;;;;;2.47;1.10;;;;;;;;;;5055885;28;20525;-57
2024/02/17 13:26:23;;;;;;;3.10;1.15;;;;;;;;;;5055412;28;20043;-56
2024/02/17 13:28:49;;;;;;;1.77;0.95;;;;;;;;;;5055958;28;20029;-57
2024/02/17 13:31:19;;;;;;;2.28;1.30;;;;;;;;;;5055087;28;20123;-57
2024/02/17 13:33:45;;;;;;;2.88;1.33;;;;;;;;;;5055520;28;20071;-57
2024/02/17 13:36:11;;;;;;;1.77;1.17;;;;;;;;;;5055082;28;20033;-58
2024/02/17 13:38:36;;;;;;;1.52;1.17;;;;;;;;;;5055393;28;20029;-58
2024/02/17 13:41:03;;;;;;;4.10;2.10;;;;;;;;;;5055039;28;20025;-58
2024/02/17 13:43:29;;;;;;;2.70;1.42;;;;;;;;;;5055862;28;20317;-57
2024/02/17 13:45:55;;;;;;;2.30;1.50;;;;;;;;;;5055491;28;20025;-56
2024/02/17 13:48:21;;;;;;;3.25;1.75;;;;;;;;;;5055154;28;20406;-58
2024/02/17 13:50:47;;;;;;;1.88;1.10;;;;;;;;;;5054614;28;20031;-58
2024/02/17 13:53:13;;;;;;;2.10;1.40;;;;;;;;;;5054784;28;20072;-57
2024/02/17 13:55:38;;;;;;;4.18;1.67;;;;;;;;;;5054634;28;20056;-58
2024/02/17 13:58:04;;;;;;;3.70;1.92;;;;;;;;;;5055233;28;20034;-58
2024/02/17 14:00:30;;;;;;;2.97;1.88;;;;;;;;;;5053818;28;20059;-58
2024/02/17 14:02:56;;;;;;;1.88;1.02;;;;;;;;;;5054451;28;20383;-58
2024/02/17 14:05:22;;;;;;;2.90;1.80;;;;;;;;;;5054492;28;20356;-58
2024/02/17 14:07:48;;;;;;;2.25;1.25;;;;;;;;;;5055198;28;20036;-58
2024/02/17 14:10:16;;;;;;;3.42;1.25;;;;;;;;;;5055368;28;20024;-57
2024/02/17 14:12:42;;;;;;;2.40;1.30;;;;;;;;;;5055235;28;20043;-57
2024/02/17 14:15:09;;;;;;;2.55;1.75;;;;;;;;;;5054446;28;20032;-57
2024/02/17 14:17:35;;;;;;;3.05;1.63;;;;;;;;;;5054942;28;20036;-59
2024/02/17 14:20:01;;;;;;;3.83;1.77;;;;;;;;;;5055218;28;20036;-58
2024/02/17 14:22:27;;;;;;;2.03;1.17;;;;;;;;;;5054459;28;20451;-57
2024/02/17 14:24:53;;;;;;;3.13;1.52;;;;;;;;;;5054359;28;20116;-57
2024/02/17 14:27:19;;;;;;;2.78;1.90;;;;;;;;;;5054287;28;20028;-57
2024/02/17 14:29:48;;;;;;;3.22;1.42;;;;;;;;;;5053906;28;20029;-57
2024/02/17 14:32:14;;;;;;;1.98;1.20;;;;;;;;;;5054196;28;20036;-57
2024/02/17 14:34:40;;;;;;;2.97;2.25;;;;;;;;;;5054749;28;20032;-57